Vindilis — FW3808 — position and weather

sailwx.info

Track history (hours):
 
Tides and Currents Weather Stations Pressure Air Temp Water Temp Dewpoint Dewpoint Depression Visibility Wind Speed Wind Dir Waves Ship Positions

Vindilis

Last reported at 2018-May-21 06:30 UTC. Time now 2018-May-21 06:47 UTC.
Position N 47°26' W 003°08'.

Length 48 m; draft 3 m.

Type: Passenger vessel. MMSI: 227003750.

Date/timePositionNaut miles runAvg speedWind from/ knotsBaromVisibWave heightAir tempDewpointWater temp
2018-May-21 06:30N 47°26' W 003°08'3 5.5
2018-May-21 06:00N 47°29' W 003°07'0 0.1
2018-May-21 05:30N 47°29' W 003°07'611.9
2018-May-21 05:00N 47°23' W 003°08'2 3.8
2018-May-21 04:30N 47°21' W 003°09'0 0.2
2018-May-21 04:00N 47°21' W 003°09'0 0.0
2018-May-20 17:50N 47°21' W 003°09'0 0.2
2018-May-20 17:30N 47°21' W 003°09'611.2
2018-May-20 17:00N 47°26' W 003°08'2 4.6
2018-May-20 16:30N 47°29' W 003°07'0 0.0
2018-May-20 16:00N 47°29' W 003°07'3 5.5
2018-May-20 15:30N 47°26' W 003°08'510.2
2018-May-20 15:01N 47°21' W 003°09'0 0.0
2018-May-20 14:30N 47°21' W 003°09'0 0.0
2018-May-20 14:01N 47°21' W 003°09'510.6
2018-May-20 13:30N 47°26' W 003°08'3 5.1
2018-May-20 13:01N 47°29' W 003°07'0 0.0
2018-May-20 12:31N 47°29' W 003°07'611.0
2018-May-20 12:00N 47°23' W 003°08'2 4.6
2018-May-20 11:30N 47°21' W 003°09'0 0.0
2018-May-20 11:00N 47°21' W 003°09'0 0.0
2018-May-20 10:30N 47°21' W 003°09'0 0.1
2018-May-20 10:00N 47°21' W 003°09'611.0
2018-May-20 09:30N 47°26' W 003°08'2 4.7
2018-May-20 09:00N 47°29' W 003°07'0 0.2
2018-May-20 08:30N 47°29' W 003°07'611.7
2018-May-20 08:00N 47°23' W 003°08'2 4.2
2018-May-20 07:30N 47°21' W 003°09'0 0.0
2018-May-20 07:00N 47°21' W 003°09'611.1
2018-May-20 06:30N 47°26' W 003°08'2 4.7
2018-May-20 06:00N 47°29' W 003°07'0 0.1
2018-May-20 05:30N 47°29' W 003°07'611.5
2018-May-20 05:00N 47°23' W 003°08'2 4.2
2018-May-20 04:31N 47°21' W 003°09'0 0.2
2018-May-20 04:00N 47°21' W 003°09'0 0.0
2018-May-19 20:16N 47°21' W 003°09'0 0.2
2018-May-19 20:00N 47°21' W 003°09'511.2
2018-May-19 19:30N 47°26' W 003°08'2 4.9
2018-May-19 19:00N 47°29' W 003°07'3 6.3
2018-May-19 18:30N 47°26' W 003°08'5 9.5
2018-May-19 18:00N 47°21' W 003°09'0 0.0
2018-May-19 17:30N 47°21' W 003°09'611.1
2018-May-19 17:00N 47°26' W 003°08'2 4.7
2018-May-19 16:30N 47°29' W 003°07'0 0.0
2018-May-19 16:00N 47°29' W 003°07'3 6.1
2018-May-19 15:30N 47°26' W 003°08'5 9.6
2018-May-19 15:00N 47°21' W 003°09'0 0.0
2018-May-19 14:30N 47°21' W 003°09'1 1.5
2018-May-19 14:01N 47°21' W 003°08'611.9
2018-May-19 13:30N 47°27' W 003°07'1 2.5
2018-May-19 12:58N 47°29' W 003°07'0 0.1
2018-May-19 12:30N 47°29' W 003°07'611.6
2018-May-19 12:00N 47°23' W 003°08'2 4.0
2018-May-19 11:30N 47°21' W 003°09'0 0.0
2018-May-19 11:00N 47°21' W 003°09'0 0.0
2018-May-19 10:31N 47°21' W 003°09'1 2.9
2018-May-19 10:00N 47°22' W 003°08'611.8
2018-May-19 09:30N 47°28' W 003°07'1 1.1
2018-May-19 09:00N 47°29' W 003°07'2 3.2
2018-May-19 08:30N 47°27' W 003°08'611.8
2018-May-19 08:00N 47°21' W 003°08'1 1.2
2018-May-19 07:31N 47°21' W 003°09'0 0.0
2018-May-19 07:00N 47°21' W 003°09'1 1.7
2018-May-19 06:30N 47°21' W 003°08'612.5
2018-May-19 06:00N 47°28' W 003°07'1 2.0
2018-May-19 05:31N 47°29' W 003°07'0 0.0
2018-May-19 05:00N 47°29' W 003°07'3 5.4
2018-May-19 04:30N 47°26' W 003°08'510.4
2018-May-19 04:01N 47°21' W 003°09'0 0.0
2018-May-19 03:27N 47°21' W 003°09'0 0.0
2018-May-18 20:24N 47°21' W 003°09'0 0.2
2018-May-18 20:00N 47°21' W 003°09'611.4
2018-May-18 19:30N 47°26' W 003°08'2 4.4
2018-May-18 19:00N 47°29' W 003°07'3 5.6
2018-May-18 18:30N 47°26' W 003°08'510.0
2018-May-18 18:00N 47°21' W 003°09'0 0.0
2018-May-18 17:30N 47°21' W 003°09'510.8
2018-May-18 17:00N 47°26' W 003°08'3 5.1
2018-May-18 16:29N 47°29' W 003°07'0 0.0
2018-May-18 16:00N 47°29' W 003°07'3 6.3
2018-May-18 15:30N 47°25' W 003°08'5 9.5
2018-May-18 15:00N 47°21' W 003°09'0 0.0
2018-May-18 14:30N 47°21' W 003°09'3 6.3
2018-May-18 14:00N 47°24' W 003°08'5 9.4
2018-May-18 13:30N 47°29' W 003°07'0 0.0
2018-May-18 13:00N 47°29' W 003°07'3 5.9
2018-May-18 12:30N 47°26' W 003°08'5 9.7
2018-May-18 12:00N 47°21' W 003°09'0 0.0
2018-May-18 11:30N 47°21' W 003°09'0 0.0
2018-May-18 11:00N 47°21' W 003°09'0 0.0
2018-May-18 10:30N 47°21' W 003°09'1 1.5
2018-May-18 10:00N 47°21' W 003°08'611.5
2018-May-18 09:31N 47°27' W 003°08'2 3.3
2018-May-18 09:00N 47°29' W 003°07'0 0.6
2018-May-18 08:30N 47°28' W 003°07'612.0
2018-May-18 08:00N 47°22' W 003°08'2 3.2
2018-May-18 07:29N 47°21' W 003°09'0 0.0
2018-May-18 07:00N 47°21' W 003°09'1 1.4
2018-May-18 06:30N 47°21' W 003°08'612.4
2018-May-18 06:00N 47°27' W 003°08'1 2.4
2018-May-18 05:30N 47°29' W 003°07'0 0.0
2018-May-18 04:59N 47°29' W 003°07'3 6.3
2018-May-18 04:30N 47°26' W 003°08'5 9.8
2018-May-18 04:00N 47°21' W 003°09'0 0.0
2018-May-18 03:25N 47°21' W 003°09'0 0.2
2018-May-18 03:00N 47°21' W 003°09'0 0.0
2018-May-17 18:01N 47°21' W 003°09'0 0.0
2018-May-17 18:00N 47°21' W 003°09'0 0.6
2018-May-17 17:30N 47°21' W 003°09'612.2
2018-May-17 17:00N 47°27' W 003°08'2 3.4
2018-May-17 16:30N 47°29' W 003°07'0 0.0
2018-May-17 16:00N 47°29' W 003°07'4 8.6
2018-May-17 15:30N 47°24' W 003°08'4 7.2
2018-May-17 15:00N 47°21' W 003°09'0 0.0
2018-May-17 14:30N 47°21' W 003°09'0 0.5
2018-May-17 14:00N 47°21' W 003°09'612.1
2018-May-17 13:30N 47°27' W 003°08'2 3.9
2018-May-17 13:00N 47°29' W 003°07'0 0.4
2018-May-17 12:30N 47°28' W 003°07'612.2
2018-May-17 12:00N 47°22' W 003°08'2 3.4
2018-May-17 11:30N 47°21' W 003°09'0 0.0
2018-May-17 11:00N 47°21' W 003°09'0 0.1
2018-May-17 10:30N 47°21' W 003°09'1 1.3
2018-May-17 10:00N 47°21' W 003°08'4 7.3
2018-May-17 09:30N 47°24' W 003°13'611.1
2018-May-17 09:00N 47°27' W 003°19'611.8
2018-May-17 08:30N 47°31' W 003°26'612.1
2018-May-17 08:00N 47°35' W 003°33'612.2
2018-May-17 07:30N 47°39' W 003°39'612.1
2018-May-17 07:00N 47°43' W 003°46'612.3
2018-May-17 06:30N 47°46' W 003°54'5 0.1
2018-May-15 13:09N 47°51' W 003°56'2 9.3
2018-May-15 12:59N 47°50' W 003°57'3 5.6
2018-May-15 12:28N 47°47' W 003°57'2 5.3
2018-May-15 12:00N 47°46' W 003°54'510.9
2018-May-15 11:30N 47°43' W 003°47'611.3
2018-May-15 11:00N 47°40' W 003°40'611.4
2018-May-15 10:30N 47°37' W 003°32'611.5
2018-May-15 10:00N 47°34' W 003°25'611.7
2018-May-15 09:30N 47°31' W 003°17'611.4
2018-May-15 09:00N 47°29' W 003°10'2 3.6
2018-May-15 08:30N 47°29' W 003°07'510.6
2018-May-15 08:00N 47°23' W 003°08'3 4.5
2018-May-15 07:27N 47°21' W 003°09'0 0.0
2018-May-15 06:57N 47°21' W 003°09'0 0.4
2018-May-15 06:30N 47°21' W 003°09'611.1
2018-May-15 06:00N 47°26' W 003°07'2 4.5
2018-May-15 05:29N 47°29' W 003°07'0 0.0
2018-May-15 05:00N 47°29' W 003°07'3 7.0
2018-May-15 04:30N 47°25' W 003°08'4 8.3
2018-May-15 03:59N 47°21' W 003°09'0 0.0
2018-May-15 03:28N 47°21' W 003°09'0 0.2
2018-May-15 03:00N 47°21' W 003°09'1 0.1
2018-May-14 17:27N 47°21' W 003°08'511.7
2018-May-14 17:01N 47°26' W 003°07'2 4.7
2018-May-14 16:31N 47°29' W 003°07'0 0.0
2018-May-14 16:01N 47°29' W 003°07'3 6.3
2018-May-14 15:30N 47°25' W 003°08'5 9.4
2018-May-14 15:00N 47°21' W 003°09'0 0.0
2018-May-14 14:30N 47°21' W 003°09'0 0.1
2018-May-14 14:01N 47°21' W 003°09'510.8
2018-May-14 13:30N 47°26' W 003°07'2 5.0
2018-May-14 13:00N 47°29' W 003°07'0 0.0
2018-May-14 12:30N 47°29' W 003°07'0 0.0
2018-May-14 12:01N 47°29' W 003°07'1 2.6
2018-May-14 11:30N 47°27' W 003°07'510.9
2018-May-14 11:00N 47°22' W 003°08'1 2.5
2018-May-14 10:30N 47°21' W 003°09'0 0.4
2018-May-14 10:00N 47°21' W 003°09'611.3
2018-May-14 09:30N 47°26' W 003°08'2 4.5
2018-May-14 09:01N 47°29' W 003°07'0 0.9
2018-May-14 08:30N 47°28' W 003°07'611.3
2018-May-14 08:01N 47°23' W 003°09'2 3.6
2018-May-14 07:30N 47°21' W 003°09'0 0.0
2018-May-14 07:00N 47°21' W 003°09'3 5.8
2018-May-14 06:30N 47°24' W 003°08'510.0
2018-May-14 06:00N 47°29' W 003°07'0 0.0
2018-May-14 05:30N 47°29' W 003°07'3 6.7
2018-May-14 05:00N 47°25' W 003°08'5 8.0
2018-May-14 04:26N 47°21' W 003°09'0 0.0
2018-May-14 03:59N 47°21' W 003°09'0 0.0
2018-May-13 20:07N 47°21' W 003°09'0 2.6
2018-May-13 20:00N 47°21' W 003°09'611.4
2018-May-13 19:30N 47°26' W 003°08'2 4.2
2018-May-13 19:00N 47°29' W 003°07'4 7.7
2018-May-13 18:30N 47°25' W 003°08'4 7.9
2018-May-13 18:00N 47°21' W 003°09'0 0.7
2018-May-13 17:30N 47°21' W 003°09'611.8
2018-May-13 17:00N 47°27' W 003°08'2 3.9
2018-May-13 16:30N 47°29' W 003°07'0 0.0
2018-May-13 16:00N 47°29' W 003°07'3 6.7
2018-May-13 15:30N 47°25' W 003°08'5 8.7
2018-May-13 14:59N 47°21' W 003°09'0 0.0
2018-May-13 14:30N 47°21' W 003°09'1 3.0
2018-May-13 14:00N 47°22' W 003°08'612.1
2018-May-13 13:30N 47°28' W 003°07'0 0.8
2018-May-13 13:00N 47°29' W 003°07'1 1.7
2018-May-13 12:30N 47°28' W 003°07'510.8
2018-May-13 12:00N 47°22' W 003°08'2 3.3
2018-May-13 11:29N 47°21' W 003°09'0 0.0
2018-May-13 11:00N 47°21' W 003°09'0 0.0
2018-May-13 10:30N 47°21' W 003°09'0 0.0
2018-May-13 10:00N 47°21' W 003°09'510.4
2018-May-13 09:30N 47°26' W 003°08'3 5.2
2018-May-13 08:59N 47°29' W 003°07'0 0.9
2018-May-13 08:30N 47°28' W 003°07'611.0
2018-May-13 08:00N 47°23' W 003°08'2 3.9
2018-May-13 07:30N 47°21' W 003°09'0 0.8
2018-May-13 07:00N 47°21' W 003°09'611.1
2018-May-13 06:30N 47°26' W 003°07'2 4.3
2018-May-13 06:00N 47°29' W 003°07'2 4.4
2018-May-13 05:30N 47°26' W 003°08'611.3
2018-May-13 05:01N 47°21' W 003°09'0 0.6
2018-May-13 04:28N 47°21' W 003°09'0 0.2
2018-May-13 04:00N 47°21' W 003°09'8 0.9
2018-May-12 19:20N 47°29' W 003°07'0 0.1
2018-May-12 19:00N 47°29' W 003°07'510.9
2018-May-12 18:31N 47°23' W 003°08'2 4.6
2018-May-12 17:59N 47°21' W 003°09'1 1.8
2018-May-12 17:31N 47°22' W 003°08'611.2
2018-May-12 17:00N 47°27' W 003°07'1 3.0
2018-May-12 16:31N 47°29' W 003°07'0 0.0
2018-May-12 16:00N 47°29' W 003°07'4 9.1
2018-May-12 15:31N 47°24' W 003°08'3 6.8
2018-May-12 15:00N 47°21' W 003°09'0 0.0
2018-May-12 14:30N 47°21' W 003°09'3 6.6
2018-May-12 14:00N 47°24' W 003°08'5 9.2
2018-May-12 13:30N 47°29' W 003°07'0 0.0
2018-May-12 13:01N 47°29' W 003°07'2 3.2
2018-May-12 12:31N 47°27' W 003°08'611.1
2018-May-12 12:01N 47°21' W 003°09'1 1.5
2018-May-12 11:30N 47°21' W 003°09'0 0.0
2018-May-12 11:00N 47°21' W 003°09'0 0.0
2018-May-12 10:30N 47°21' W 003°09'0 0.5
2018-May-12 10:00N 47°21' W 003°09'611.3
2018-May-12 09:30N 47°26' W 003°08'2 4.5
2018-May-12 09:00N 47°29' W 003°07'1 1.8
2018-May-12 08:30N 47°28' W 003°07'611.7
2018-May-12 08:01N 47°22' W 003°08'1 2.4
2018-May-12 07:30N 47°21' W 003°09'0 0.0
2018-May-12 07:00N 47°21' W 003°09'1 1.4
2018-May-12 06:30N 47°21' W 003°09'611.2
2018-May-12 06:00N 47°27' W 003°08'2 3.2
2018-May-12 05:30N 47°29' W 003°07'0 0.0
2018-May-12 05:00N 47°29' W 003°07'4 7.7
2018-May-12 04:30N 47°25' W 003°08'4 7.9
2018-May-12 04:00N 47°21' W 003°09'0 0.0
2018-May-12 03:30N 47°21' W 003°09'0 0.0
2018-May-11 20:27N 47°21' W 003°09'1 2.2
2018-May-11 20:01N 47°22' W 003°08'611.5
2018-May-11 19:30N 47°27' W 003°08'1 2.3
2018-May-11 19:01N 47°29' W 003°07'5 9.2
2018-May-11 18:30N 47°24' W 003°08'3 6.4
2018-May-11 18:00N 47°21' W 003°09'1 1.4
2018-May-11 17:31N 47°21' W 003°08'611.3
2018-May-11 17:01N 47°27' W 003°08'2 3.4
2018-May-11 16:31N 47°29' W 003°07'0 0.0
2018-May-11 16:00N 47°29' W 003°07'3 6.6
2018-May-11 15:31N 47°25' W 003°08'5 8.8
2018-May-11 14:59N 47°21' W 003°09'0 0.0
2018-May-11 14:30N 47°21' W 003°09'0 0.7
2018-May-11 14:01N 47°21' W 003°09'611.2
2018-May-11 13:30N 47°26' W 003°08'2 4.3
2018-May-11 13:01N 47°29' W 003°07'0 0.5
2018-May-11 12:30N 47°28' W 003°07'611.5
2018-May-11 12:01N 47°23' W 003°08'2 3.6
2018-May-11 11:27N 47°21' W 003°09'0 0.0
2018-May-11 11:00N 47°21' W 003°09'0 0.0
2018-May-11 10:30N 47°21' W 003°09'4 8.1
2018-May-11 10:01N 47°25' W 003°08'4 7.8
2018-May-11 09:31N 47°29' W 003°07'0 0.0
2018-May-11 09:01N 47°29' W 003°07'1 1.5
2018-May-11 08:30N 47°28' W 003°07'612.0
2018-May-11 08:01N 47°22' W 003°08'1 2.5
2018-May-11 07:30N 47°21' W 003°09'0 0.0
2018-May-11 07:00N 47°21' W 003°09'  
Track history (hours):
 
Tides and Currents Weather Stations Pressure Air Temp Water Temp Dewpoint Dewpoint Depression Visibility Wind Speed Wind Dir Waves Ship Positions

Vindilis

Last reported at 2018-May-21 06:30 UTC. Time now 2018-May-21 06:47 UTC.
Position N 47°26' W 003°08'.

Length 48 m; draft 3 m.

Type: Passenger vessel. MMSI: 227003750.

Date/timePositionNaut miles runAvg speedWind from/ knotsBaromVisibWave heightAir tempDewpointWater temp
2018-May-21 06:30N 47°26' W 003°08'3 5.5
2018-May-21 06:00N 47°29' W 003°07'0 0.1
2018-May-21 05:30N 47°29' W 003°07'611.9
2018-May-21 05:00N 47°23' W 003°08'2 3.8
2018-May-21 04:30N 47°21' W 003°09'0 0.2
2018-May-21 04:00N 47°21' W 003°09'0 0.0
2018-May-20 17:50N 47°21' W 003°09'0 0.2
2018-May-20 17:30N 47°21' W 003°09'611.2
2018-May-20 17:00N 47°26' W 003°08'2 4.6
2018-May-20 16:30N 47°29' W 003°07'0 0.0
2018-May-20 16:00N 47°29' W 003°07'3 5.5
2018-May-20 15:30N 47°26' W 003°08'510.2
2018-May-20 15:01N 47°21' W 003°09'0 0.0
2018-May-20 14:30N 47°21' W 003°09'0 0.0
2018-May-20 14:01N 47°21' W 003°09'510.6
2018-May-20 13:30N 47°26' W 003°08'3 5.1
2018-May-20 13:01N 47°29' W 003°07'0 0.0
2018-May-20 12:31N 47°29' W 003°07'611.0
2018-May-20 12:00N 47°23' W 003°08'2 4.6
2018-May-20 11:30N 47°21' W 003°09'0 0.0
2018-May-20 11:00N 47°21' W 003°09'0 0.0
2018-May-20 10:30N 47°21' W 003°09'0 0.1
2018-May-20 10:00N 47°21' W 003°09'611.0
2018-May-20 09:30N 47°26' W 003°08'2 4.7
2018-May-20 09:00N 47°29' W 003°07'0 0.2
2018-May-20 08:30N 47°29' W 003°07'611.7
2018-May-20 08:00N 47°23' W 003°08'2 4.2
2018-May-20 07:30N 47°21' W 003°09'0 0.0
2018-May-20 07:00N 47°21' W 003°09'611.1
2018-May-20 06:30N 47°26' W 003°08'2 4.7
2018-May-20 06:00N 47°29' W 003°07'0 0.1
2018-May-20 05:30N 47°29' W 003°07'611.5
2018-May-20 05:00N 47°23' W 003°08'2 4.2
2018-May-20 04:31N 47°21' W 003°09'0 0.2
2018-May-20 04:00N 47°21' W 003°09'0 0.0
2018-May-19 20:16N 47°21' W 003°09'0 0.2
2018-May-19 20:00N 47°21' W 003°09'511.2
2018-May-19 19:30N 47°26' W 003°08'2 4.9
2018-May-19 19:00N 47°29' W 003°07'3 6.3
2018-May-19 18:30N 47°26' W 003°08'5 9.5
2018-May-19 18:00N 47°21' W 003°09'0 0.0
2018-May-19 17:30N 47°21' W 003°09'611.1
2018-May-19 17:00N 47°26' W 003°08'2 4.7
2018-May-19 16:30N 47°29' W 003°07'0 0.0
2018-May-19 16:00N 47°29' W 003°07'3 6.1
2018-May-19 15:30N 47°26' W 003°08'5 9.6
2018-May-19 15:00N 47°21' W 003°09'0 0.0
2018-May-19 14:30N 47°21' W 003°09'1 1.5
2018-May-19 14:01N 47°21' W 003°08'611.9
2018-May-19 13:30N 47°27' W 003°07'1 2.5
2018-May-19 12:58N 47°29' W 003°07'0 0.1
2018-May-19 12:30N 47°29' W 003°07'611.6
2018-May-19 12:00N 47°23' W 003°08'2 4.0
2018-May-19 11:30N 47°21' W 003°09'0 0.0
2018-May-19 11:00N 47°21' W 003°09'0 0.0
2018-May-19 10:31N 47°21' W 003°09'1 2.9
2018-May-19 10:00N 47°22' W 003°08'611.8
2018-May-19 09:30N 47°28' W 003°07'1 1.1
2018-May-19 09:00N 47°29' W 003°07'2 3.2
2018-May-19 08:30N 47°27' W 003°08'611.8
2018-May-19 08:00N 47°21' W 003°08'1 1.2
2018-May-19 07:31N 47°21' W 003°09'0 0.0
2018-May-19 07:00N 47°21' W 003°09'1 1.7
2018-May-19 06:30N 47°21' W 003°08'612.5
2018-May-19 06:00N 47°28' W 003°07'1 2.0
2018-May-19 05:31N 47°29' W 003°07'0 0.0
2018-May-19 05:00N 47°29' W 003°07'3 5.4
2018-May-19 04:30N 47°26' W 003°08'510.4
2018-May-19 04:01N 47°21' W 003°09'0 0.0
2018-May-19 03:27N 47°21' W 003°09'0 0.0
2018-May-18 20:24N 47°21' W 003°09'0 0.2
2018-May-18 20:00N 47°21' W 003°09'611.4
2018-May-18 19:30N 47°26' W 003°08'2 4.4
2018-May-18 19:00N 47°29' W 003°07'3 5.6
2018-May-18 18:30N 47°26' W 003°08'510.0
2018-May-18 18:00N 47°21' W 003°09'0 0.0
2018-May-18 17:30N 47°21' W 003°09'510.8
2018-May-18 17:00N 47°26' W 003°08'3 5.1
2018-May-18 16:29N 47°29' W 003°07'0 0.0
2018-May-18 16:00N 47°29' W 003°07'3 6.3
2018-May-18 15:30N 47°25' W 003°08'5 9.5
2018-May-18 15:00N 47°21' W 003°09'0 0.0
2018-May-18 14:30N 47°21' W 003°09'3 6.3
2018-May-18 14:00N 47°24' W 003°08'5 9.4
2018-May-18 13:30N 47°29' W 003°07'0 0.0
2018-May-18 13:00N 47°29' W 003°07'3 5.9
2018-May-18 12:30N 47°26' W 003°08'5 9.7
2018-May-18 12:00N 47°21' W 003°09'0 0.0
2018-May-18 11:30N 47°21' W 003°09'0 0.0
2018-May-18 11:00N 47°21' W 003°09'0 0.0
2018-May-18 10:30N 47°21' W 003°09'1 1.5
2018-May-18 10:00N 47°21' W 003°08'611.5
2018-May-18 09:31N 47°27' W 003°08'2 3.3
2018-May-18 09:00N 47°29' W 003°07'0 0.6
2018-May-18 08:30N 47°28' W 003°07'612.0
2018-May-18 08:00N 47°22' W 003°08'2 3.2
2018-May-18 07:29N 47°21' W 003°09'0 0.0
2018-May-18 07:00N 47°21' W 003°09'1 1.4
2018-May-18 06:30N 47°21' W 003°08'612.4
2018-May-18 06:00N 47°27' W 003°08'1 2.4
2018-May-18 05:30N 47°29' W 003°07'0 0.0
2018-May-18 04:59N 47°29' W 003°07'3 6.3
2018-May-18 04:30N 47°26' W 003°08'5 9.8
2018-May-18 04:00N 47°21' W 003°09'0 0.0
2018-May-18 03:25N 47°21' W 003°09'0 0.2
2018-May-18 03:00N 47°21' W 003°09'0 0.0
2018-May-17 18:01N 47°21' W 003°09'0 0.0
2018-May-17 18:00N 47°21' W 003°09'0 0.6
2018-May-17 17:30N 47°21' W 003°09'612.2
2018-May-17 17:00N 47°27' W 003°08'2 3.4
2018-May-17 16:30N 47°29' W 003°07'0 0.0
2018-May-17 16:00N 47°29' W 003°07'4 8.6
2018-May-17 15:30N 47°24' W 003°08'4 7.2
2018-May-17 15:00N 47°21' W 003°09'0 0.0
2018-May-17 14:30N 47°21' W 003°09'0 0.5
2018-May-17 14:00N 47°21' W 003°09'612.1
2018-May-17 13:30N 47°27' W 003°08'2 3.9
2018-May-17 13:00N 47°29' W 003°07'0 0.4
2018-May-17 12:30N 47°28' W 003°07'612.2
2018-May-17 12:00N 47°22' W 003°08'2 3.4
2018-May-17 11:30N 47°21' W 003°09'0 0.0
2018-May-17 11:00N 47°21' W 003°09'0 0.1
2018-May-17 10:30N 47°21' W 003°09'1 1.3
2018-May-17 10:00N 47°21' W 003°08'4 7.3
2018-May-17 09:30N 47°24' W 003°13'611.1
2018-May-17 09:00N 47°27' W 003°19'611.8
2018-May-17 08:30N 47°31' W 003°26'612.1
2018-May-17 08:00N 47°35' W 003°33'612.2
2018-May-17 07:30N 47°39' W 003°39'612.1
2018-May-17 07:00N 47°43' W 003°46'612.3
2018-May-17 06:30N 47°46' W 003°54'5 0.1
2018-May-15 13:09N 47°51' W 003°56'2 9.3
2018-May-15 12:59N 47°50' W 003°57'3 5.6
2018-May-15 12:28N 47°47' W 003°57'2 5.3
2018-May-15 12:00N 47°46' W 003°54'510.9
2018-May-15 11:30N 47°43' W 003°47'611.3
2018-May-15 11:00N 47°40' W 003°40'611.4
2018-May-15 10:30N 47°37' W 003°32'611.5
2018-May-15 10:00N 47°34' W 003°25'611.7
2018-May-15 09:30N 47°31' W 003°17'611.4
2018-May-15 09:00N 47°29' W 003°10'2 3.6
2018-May-15 08:30N 47°29' W 003°07'510.6
2018-May-15 08:00N 47°23' W 003°08'3 4.5
2018-May-15 07:27N 47°21' W 003°09'0 0.0
2018-May-15 06:57N 47°21' W 003°09'0 0.4
2018-May-15 06:30N 47°21' W 003°09'611.1
2018-May-15 06:00N 47°26' W 003°07'2 4.5
2018-May-15 05:29N 47°29' W 003°07'0 0.0
2018-May-15 05:00N 47°29' W 003°07'3 7.0
2018-May-15 04:30N 47°25' W 003°08'4 8.3
2018-May-15 03:59N 47°21' W 003°09'0 0.0
2018-May-15 03:28N 47°21' W 003°09'0 0.2
2018-May-15 03:00N 47°21' W 003°09'1 0.1
2018-May-14 17:27N 47°21' W 003°08'511.7
2018-May-14 17:01N 47°26' W 003°07'2 4.7
2018-May-14 16:31N 47°29' W 003°07'0 0.0
2018-May-14 16:01N 47°29' W 003°07'3 6.3
2018-May-14 15:30N 47°25' W 003°08'5 9.4
2018-May-14 15:00N 47°21' W 003°09'0 0.0
2018-May-14 14:30N 47°21' W 003°09'0 0.1
2018-May-14 14:01N 47°21' W 003°09'510.8
2018-May-14 13:30N 47°26' W 003°07'2 5.0
2018-May-14 13:00N 47°29' W 003°07'0 0.0
2018-May-14 12:30N 47°29' W 003°07'0 0.0
2018-May-14 12:01N 47°29' W 003°07'1 2.6
2018-May-14 11:30N 47°27' W 003°07'510.9
2018-May-14 11:00N 47°22' W 003°08'1 2.5
2018-May-14 10:30N 47°21' W 003°09'0 0.4
2018-May-14 10:00N 47°21' W 003°09'611.3
2018-May-14 09:30N 47°26' W 003°08'2 4.5
2018-May-14 09:01N 47°29' W 003°07'0 0.9
2018-May-14 08:30N 47°28' W 003°07'611.3
2018-May-14 08:01N 47°23' W 003°09'2 3.6
2018-May-14 07:30N 47°21' W 003°09'0 0.0
2018-May-14 07:00N 47°21' W 003°09'3 5.8
2018-May-14 06:30N 47°24' W 003°08'510.0
2018-May-14 06:00N 47°29' W 003°07'0 0.0
2018-May-14 05:30N 47°29' W 003°07'3 6.7
2018-May-14 05:00N 47°25' W 003°08'5 8.0
2018-May-14 04:26N 47°21' W 003°09'0 0.0
2018-May-14 03:59N 47°21' W 003°09'0 0.0
2018-May-13 20:07N 47°21' W 003°09'0 2.6
2018-May-13 20:00N 47°21' W 003°09'611.4
2018-May-13 19:30N 47°26' W 003°08'2 4.2
2018-May-13 19:00N 47°29' W 003°07'4 7.7
2018-May-13 18:30N 47°25' W 003°08'4 7.9
2018-May-13 18:00N 47°21' W 003°09'0 0.7
2018-May-13 17:30N 47°21' W 003°09'611.8
2018-May-13 17:00N 47°27' W 003°08'2 3.9
2018-May-13 16:30N 47°29' W 003°07'0 0.0
2018-May-13 16:00N 47°29' W 003°07'3 6.7
2018-May-13 15:30N 47°25' W 003°08'5 8.7
2018-May-13 14:59N 47°21' W 003°09'0 0.0
2018-May-13 14:30N 47°21' W 003°09'1 3.0
2018-May-13 14:00N 47°22' W 003°08'612.1
2018-May-13 13:30N 47°28' W 003°07'0 0.8
2018-May-13 13:00N 47°29' W 003°07'1 1.7
2018-May-13 12:30N 47°28' W 003°07'510.8
2018-May-13 12:00N 47°22' W 003°08'2 3.3
2018-May-13 11:29N 47°21' W 003°09'0 0.0
2018-May-13 11:00N 47°21' W 003°09'0 0.0
2018-May-13 10:30N 47°21' W 003°09'0 0.0
2018-May-13 10:00N 47°21' W 003°09'510.4
2018-May-13 09:30N 47°26' W 003°08'3 5.2
2018-May-13 08:59N 47°29' W 003°07'0 0.9
2018-May-13 08:30N 47°28' W 003°07'611.0
2018-May-13 08:00N 47°23' W 003°08'2 3.9
2018-May-13 07:30N 47°21' W 003°09'0 0.8
2018-May-13 07:00N 47°21' W 003°09'611.1
2018-May-13 06:30N 47°26' W 003°07'2 4.3
2018-May-13 06:00N 47°29' W 003°07'2 4.4
2018-May-13 05:30N 47°26' W 003°08'611.3
2018-May-13 05:01N 47°21' W 003°09'0 0.6
2018-May-13 04:28N 47°21' W 003°09'0 0.2
2018-May-13 04:00N 47°21' W 003°09'8 0.9
2018-May-12 19:20N 47°29' W 003°07'0 0.1
2018-May-12 19:00N 47°29' W 003°07'510.9
2018-May-12 18:31N 47°23' W 003°08'2 4.6
2018-May-12 17:59N 47°21' W 003°09'1 1.8
2018-May-12 17:31N 47°22' W 003°08'611.2
2018-May-12 17:00N 47°27' W 003°07'1 3.0
2018-May-12 16:31N 47°29' W 003°07'0 0.0
2018-May-12 16:00N 47°29' W 003°07'4 9.1
2018-May-12 15:31N 47°24' W 003°08'3 6.8
2018-May-12 15:00N 47°21' W 003°09'0 0.0
2018-May-12 14:30N 47°21' W 003°09'3 6.6
2018-May-12 14:00N 47°24' W 003°08'5 9.2
2018-May-12 13:30N 47°29' W 003°07'0 0.0
2018-May-12 13:01N 47°29' W 003°07'2 3.2
2018-May-12 12:31N 47°27' W 003°08'611.1
2018-May-12 12:01N 47°21' W 003°09'1 1.5
2018-May-12 11:30N 47°21' W 003°09'0 0.0
2018-May-12 11:00N 47°21' W 003°09'0 0.0
2018-May-12 10:30N 47°21' W 003°09'0 0.5
2018-May-12 10:00N 47°21' W 003°09'611.3
2018-May-12 09:30N 47°26' W 003°08'2 4.5
2018-May-12 09:00N 47°29' W 003°07'1 1.8
2018-May-12 08:30N 47°28' W 003°07'611.7
2018-May-12 08:01N 47°22' W 003°08'1 2.4
2018-May-12 07:30N 47°21' W 003°09'0 0.0
2018-May-12 07:00N 47°21' W 003°09'1 1.4
2018-May-12 06:30N 47°21' W 003°09'611.2
2018-May-12 06:00N 47°27' W 003°08'2 3.2
2018-May-12 05:30N 47°29' W 003°07'0 0.0
2018-May-12 05:00N 47°29' W 003°07'4 7.7
2018-May-12 04:30N 47°25' W 003°08'4 7.9
2018-May-12 04:00N 47°21' W 003°09'0 0.0
2018-May-12 03:30N 47°21' W 003°09'0 0.0
2018-May-11 20:27N 47°21' W 003°09'1 2.2
2018-May-11 20:01N 47°22' W 003°08'611.5
2018-May-11 19:30N 47°27' W 003°08'1 2.3
2018-May-11 19:01N 47°29' W 003°07'5 9.2
2018-May-11 18:30N 47°24' W 003°08'3 6.4
2018-May-11 18:00N 47°21' W 003°09'1 1.4
2018-May-11 17:31N 47°21' W 003°08'611.3
2018-May-11 17:01N 47°27' W 003°08'2 3.4
2018-May-11 16:31N 47°29' W 003°07'0 0.0
2018-May-11 16:00N 47°29' W 003°07'3 6.6
2018-May-11 15:31N 47°25' W 003°08'5 8.8
2018-May-11 14:59N 47°21' W 003°09'0 0.0
2018-May-11 14:30N 47°21' W 003°09'0 0.7
2018-May-11 14:01N 47°21' W 003°09'611.2
2018-May-11 13:30N 47°26' W 003°08'2 4.3
2018-May-11 13:01N 47°29' W 003°07'0 0.5
2018-May-11 12:30N 47°28' W 003°07'611.5
2018-May-11 12:01N 47°23' W 003°08'2 3.6
2018-May-11 11:27N 47°21' W 003°09'0 0.0
2018-May-11 11:00N 47°21' W 003°09'0 0.0
2018-May-11 10:30N 47°21' W 003°09'4 8.1
2018-May-11 10:01N 47°25' W 003°08'4 7.8
2018-May-11 09:31N 47°29' W 003°07'0 0.0
2018-May-11 09:01N 47°29' W 003°07'1 1.5
2018-May-11 08:30N 47°28' W 003°07'612.0
2018-May-11 08:01N 47°22' W 003°08'1 2.5
2018-May-11 07:30N 47°21' W 003°09'0 0.0
2018-May-11 07:00N 47°21' W 003°09'  

Dump ship's entire track history